»·PEaware :: N872SP KSNA-KPSP

N872SP :: KSNA-KPSP

FLIGHT INFORMATION

Flight Status: Arrived
Operator: Privately registered:
United States
More flights under this callsign
Pilot: Anonymous 30110 (30110)
Aircraft: CESSNA 172 SKYHAWK
(C172)
More flights by this aircraft type
Origin: KSNA John Wayne-Orange Co
United States
Destination: KPSP Palm Springs Intl
United States
More flights between these airports :: More routes between these airports
Route:
File this flight plan on PilotEdge
Remarks:
Altitude:
(Current/Filed)
5,500ft
Speed:
(Current/Filed)
110kts
Departed: 29-Nov-20 04:36 PM
Arrived: 29-Nov-20 05:30 PM
Distance/Time
Traveled:
69nm/0:54
Distance/Time
To Go:
Arrived

Flight Plot

Page will automatically refresh every two minutes.


Map Options




Map Legend


Flown Route
Filed Route
Departure Airport
Arrival Airport
Navaid (VOR, NDB)
Fix

Horizontal Profiles

Position Reports

Time Latitude Longitude Heading Altitude Ground
Speed
29-Nov-20 16:06 33.670659 -117.868000 215 60ft 0kts
29-Nov-20 16:07 33.670659 -117.868000 215 60ft 0kts
29-Nov-20 16:08 33.670659 -117.868000 215 60ft 0kts
29-Nov-20 16:09 33.670659 -117.868000 215 60ft 0kts
29-Nov-20 16:10 33.670659 -117.868000 215 60ft 0kts
29-Nov-20 16:11 33.670659 -117.868000 215 60ft 0kts
29-Nov-20 16:12 33.670659 -117.868000 215 60ft 0kts
29-Nov-20 16:13 33.670659 -117.868000 215 60ft 0kts
29-Nov-20 16:14 33.670659 -117.868000 215 60ft 0kts
29-Nov-20 16:15 33.670659 -117.868000 215 60ft 0kts
29-Nov-20 16:16 33.670659 -117.868000 215 60ft 0kts
29-Nov-20 16:17 33.670659 -117.868000 215 60ft 0kts
29-Nov-20 16:18 33.670659 -117.868000 215 60ft 0kts
29-Nov-20 16:19 33.670659 -117.868000 215 60ft 0kts
29-Nov-20 16:20 33.670771 -117.868360 308 60ft 2kts
29-Nov-20 16:21 33.672966 -117.867400 41 60ft 16kts
29-Nov-20 16:22 33.675394 -117.866278 26 60ft 13kts
29-Nov-20 16:23 33.679159 -117.863864 27 60ft 14kts
29-Nov-20 16:24 33.679851 -117.863518 339 60ft 0kts
29-Nov-20 16:25 33.679851 -117.863518 339 60ft 0kts
29-Nov-20 16:26 33.679851 -117.863518 339 60ft 0kts
29-Nov-20 16:27 33.679851 -117.863518 339 60ft 0kts
29-Nov-20 16:29 33.679851 -117.863518 339 60ft 0kts
29-Nov-20 16:30 33.679945 -117.863605 301 60ft 0kts
29-Nov-20 16:31 33.679945 -117.863605 303 60ft 0kts
29-Nov-20 16:32 33.679945 -117.863605 303 60ft 0kts
29-Nov-20 16:33 33.679945 -117.863605 303 60ft 0kts
29-Nov-20 16:34 33.679949 -117.863612 298 60ft 0kts
29-Nov-20 16:35 33.680076 -117.864038 260 60ft 8kts
29-Nov-20 16:36 33.665481 -117.873288 186 720ft 78kts
29-Nov-20 16:37 33.644166 -117.864943 153 1714ft 85kts
29-Nov-20 16:38 33.645675 -117.840931 68 2757ft 78kts
29-Nov-20 16:39 33.657648 -117.818378 54 3656ft 83kts
29-Nov-20 16:40 33.672231 -117.797208 50 4531ft 83kts
29-Nov-20 16:41 33.679569 -117.771560 86 5335ft 85kts
29-Nov-20 16:42 33.682378 -117.737073 81 5532ft 117kts
29-Nov-20 16:43 33.686253 -117.697188 83 5475ft 120kts
29-Nov-20 16:44 33.691283 -117.657919 73 5507ft 117kts
29-Nov-20 16:44 33.697973 -117.626093 79 5522ft 118kts
29-Nov-20 16:46 33.695682 -117.580994 105 5555ft 119kts
29-Nov-20 16:47 33.684794 -117.542296 109 5438ft 123kts
29-Nov-20 16:47 33.676608 -117.511558 101 5563ft 115kts
29-Nov-20 16:48 33.668894 -117.472199 102 5450ft 121kts
29-Nov-20 16:49 33.661870 -117.434403 101 5569ft 117kts
29-Nov-20 16:51 33.676006 -117.394255 52 5491ft 121kts
29-Nov-20 16:51 33.691162 -117.366122 62 5522ft 117kts
29-Nov-20 16:52 33.705687 -117.331052 52 5503ft 122kts
29-Nov-20 16:53 33.725167 -117.298591 56 5537ft 119kts
29-Nov-20 16:54 33.741918 -117.264460 86 5506ft 121kts
29-Nov-20 16:55 33.745806 -117.224818 81 5531ft 119kts
29-Nov-20 16:56 33.751035 -117.185407 78 5543ft 118kts
29-Nov-20 16:57 33.756501 -117.146086 84 5542ft 119kts
29-Nov-20 16:58 33.759040 -117.106194 86 5556ft 118kts
29-Nov-20 16:59 33.761889 -117.066264 79 5554ft 118kts
29-Nov-20 17:00 33.768556 -117.027116 81 5534ft 120kts
29-Nov-20 17:01 33.773523 -116.987476 80 5543ft 119kts
29-Nov-20 17:02 33.778862 -116.948735 80 5813ft 104kts
29-Nov-20 17:03 33.780934 -116.918916 105 6702ft 84kts
29-Nov-20 17:04 33.773536 -116.892456 107 7394ft 84kts
29-Nov-20 17:05 33.765896 -116.866007 108 8065ft 82kts
29-Nov-20 17:06 33.759182 -116.839341 103 8635ft 87kts
29-Nov-20 17:07 33.753430 -116.812141 103 9235ft 83kts
29-Nov-20 17:08 33.748513 -116.782273 99 9549ft 107kts
29-Nov-20 17:09 33.742344 -116.743511 100 9579ft 123kts
29-Nov-20 17:10 33.736033 -116.701307 97 9492ft 127kts
29-Nov-20 17:11 33.733783 -116.658852 90 9430ft 129kts
29-Nov-20 17:12 33.729752 -116.616651 103 9459ft 126kts
29-Nov-20 17:13 33.729855 -116.582351 46 8777ft 102kts
29-Nov-20 17:14 33.756862 -116.572878 356 7878ft 106kts
29-Nov-20 17:15 33.785725 -116.576820 338 7067ft 100kts
29-Nov-20 17:16 33.812670 -116.580372 20 6264ft 102kts
29-Nov-20 17:17 33.819618 -116.549811 85 5452ft 103kts
29-Nov-20 17:18 33.823948 -116.517857 67 4791ft 98kts
29-Nov-20 17:19 33.831809 -116.486303 79 4052ft 99kts
29-Nov-20 17:20 33.842187 -116.459274 9 3369ft 96kts
29-Nov-20 17:21 33.857782 -116.475268 224 2713ft 95kts
29-Nov-20 17:22 33.833435 -116.487197 204 2059ft 93kts
29-Nov-20 17:23 33.812672 -116.480820 110 1511ft 89kts
29-Nov-20 17:24 33.824713 -116.462385 21 1500ft 86kts
29-Nov-20 17:25 33.842337 -116.476939 246 1446ft 100kts
29-Nov-20 17:26 33.823075 -116.476961 130 1344ft 70kts
29-Nov-20 17:27 33.811330 -116.484519 280 853ft 66kts
29-Nov-20 17:28 33.823479 -116.499350 331 453ft 60kts
29-Nov-20 17:29 33.829585 -116.504693 339 420ft 9kts
29-Nov-20 17:30 33.829981 -116.504441 59 419ft 0kts
29-Nov-20 17:31 33.828411 -116.502706 144 415ft 22kts
29-Nov-20 17:32 33.825920 -116.500482 144 406ft 16kts
29-Nov-20 17:33 33.824662 -116.498508 148 400ft 5kts

Navigation Log

Ident Type
Flight plan parsing failed, navigation log unavailable